createdAt,value
2018-04-16T00:02:21.933Z,12.17
2018-04-16T00:04:48.113Z,11.20
2018-04-16T00:07:14.327Z,14.00
2018-04-16T00:09:41.273Z,14.30
2018-04-16T00:12:08.296Z,15.70
2018-04-16T00:14:36.640Z,15.87
2018-04-16T00:17:02.851Z,17.00
2018-04-16T00:19:29.081Z,12.97
2018-04-16T00:21:55.404Z,13.57
2018-04-16T00:24:21.597Z,12.30
2018-04-16T00:26:49.404Z,21.97
2018-04-16T00:29:15.596Z,19.90
2018-04-16T00:34:41.442Z,16.30
2018-04-16T00:43:19.641Z,18.53
2018-04-16T00:45:52.014Z,16.00
2018-04-16T00:48:24.175Z,18.77
2018-04-16T00:50:56.516Z,15.90
2018-04-16T00:53:42.497Z,17.53
2018-04-16T00:56:14.766Z,18.30
2018-04-16T00:58:49.193Z,17.47
2018-04-16T01:01:21.549Z,20.23
2018-04-16T01:03:53.896Z,18.33
2018-04-16T01:06:26.255Z,21.53
2018-04-16T01:08:58.436Z,24.67
2018-04-16T01:11:31.735Z,23.53
2018-04-16T01:14:04.053Z,24.60
2018-04-16T01:16:36.368Z,23.73
2018-04-16T01:19:08.635Z,21.93
2018-04-16T01:21:43.090Z,23.77
2018-04-16T01:24:17.394Z,22.37
2018-04-16T01:26:50.330Z,30.13
2018-04-16T01:29:22.749Z,26.97
2018-04-16T01:31:55.049Z,25.63
2018-04-16T01:34:27.370Z,29.23
2018-04-16T01:37:06.039Z,36.47
2018-04-16T01:39:38.383Z,34.30
2018-04-16T01:42:11.675Z,37.80
2018-04-16T01:44:44.972Z,32.37
2018-04-16T01:47:18.025Z,36.53
2018-04-16T01:49:50.411Z,34.67
2018-04-16T01:52:22.591Z,34.13
2018-04-16T01:54:54.904Z,31.07
2018-04-16T01:57:27.296Z,31.17
2018-04-16T02:00:08.403Z,37.23
2018-04-16T02:02:41.501Z,34.23
2018-04-16T02:05:13.818Z,35.90
2018-04-16T02:07:46.127Z,38.43
2018-04-16T02:10:18.934Z,42.63
2018-04-16T02:12:51.191Z,40.70
2018-04-16T02:15:23.453Z,32.47
2018-04-16T02:17:56.482Z,38.00
2018-04-16T02:23:34.687Z,38.43
2018-04-16T02:26:07.015Z,32.17
2018-04-16T02:28:39.157Z,39.27
2018-04-16T02:31:11.555Z,41.63
2018-04-16T02:33:43.906Z,39.33
2018-04-16T02:36:16.325Z,38.53
2018-04-16T02:38:49.298Z,40.53
2018-04-16T02:41:21.671Z,44.87
2018-04-16T02:43:54.074Z,46.10
2018-04-16T02:46:26.427Z,39.87
2018-04-16T02:48:58.601Z,36.00
2018-04-16T02:51:30.985Z,34.53
2018-04-16T02:54:03.409Z,35.60
2018-04-16T02:56:39.944Z,41.87
2018-04-16T02:59:12.425Z,37.43
2018-04-16T03:01:44.836Z,39.30
2018-04-16T03:04:17.144Z,39.53
2018-04-16T03:06:49.479Z,45.03
2018-04-16T03:09:21.765Z,48.93
2018-04-16T03:11:54.940Z,46.80
2018-04-16T03:14:28.762Z,56.30
2018-04-16T03:17:01.073Z,48.63
2018-04-16T03:19:33.291Z,58.07
2018-04-16T03:22:05.659Z,46.60
2018-04-16T03:24:37.965Z,54.60
2018-04-16T03:27:10.333Z,50.57
2018-04-16T03:29:42.568Z,48.33
2018-04-16T03:32:15.759Z,49.13
2018-04-16T03:34:48.098Z,50.77
2018-04-16T03:37:30.559Z,55.17
2018-04-16T03:43:04.939Z,56.00
2018-04-16T03:45:37.303Z,63.73
2018-04-16T03:48:09.653Z,61.30
2018-04-16T03:50:41.954Z,55.70
2018-04-16T03:53:14.291Z,62.63
2018-04-16T03:55:42.233Z,57.90
2018-04-16T03:58:08.487Z,65.53
2018-04-16T04:00:34.708Z,59.30
2018-04-16T04:03:01.025Z,62.97
2018-04-16T04:05:27.207Z,64.73
2018-04-16T04:07:53.369Z,63.90
2018-04-16T04:10:20.301Z,55.13
2018-04-16T04:12:47.300Z,60.87
2018-04-16T04:15:13.528Z,60.00
2018-04-16T04:17:40.477Z,52.20
2018-04-16T04:20:07.477Z,50.83
2018-04-16T04:22:50.749Z,65.47
2018-04-16T04:25:29.655Z,44.00
2018-04-16T04:28:08.034Z,54.87
2018-04-16T04:30:37.094Z,60.90
2018-04-16T04:33:03.836Z,62.80
2018-04-16T04:35:29.991Z,57.87
2018-04-16T04:37:56.208Z,50.27
2018-04-16T04:40:22.391Z,63.60
2018-04-16T04:42:48.639Z,56.50
2018-04-16T04:45:14.823Z,62.03
2018-04-16T04:47:42.140Z,58.73
2018-04-16T04:50:09.931Z,43.27
2018-04-16T04:52:37.843Z,62.27
2018-04-16T04:55:04.073Z,55.43
2018-04-16T04:57:30.969Z,50.03
2018-04-16T04:59:57.169Z,55.37
2018-04-16T05:02:23.333Z,52.93
2018-04-16T05:04:49.572Z,55.47
2018-04-16T05:07:15.769Z,52.73
2018-04-16T05:09:41.963Z,56.33
2018-04-16T05:12:08.221Z,58.13
2018-04-16T05:14:35.318Z,42.03
2018-04-16T05:17:01.543Z,53.50
2018-04-16T05:19:27.725Z,44.57
2018-04-16T05:21:54.655Z,50.80
2018-04-16T05:24:20.831Z,45.37
2018-04-16T05:26:46.993Z,47.47
2018-04-16T05:29:13.182Z,40.83
2018-04-16T05:31:39.389Z,38.70
2018-04-16T05:34:05.590Z,35.33
2018-04-16T05:36:32.569Z,39.37
2018-04-16T05:38:58.769Z,39.30
2018-04-16T05:41:25.709Z,30.77
2018-04-16T05:43:52.078Z,32.50
2018-04-16T05:46:19.075Z,35.83
2018-04-16T05:48:45.333Z,37.30
2018-04-16T05:51:11.581Z,38.17
2018-04-16T05:53:39.315Z,39.43
2018-04-16T05:56:05.600Z,38.03
2018-04-16T05:58:31.926Z,35.70
2018-04-16T06:00:58.320Z,29.97
2018-04-16T06:03:24.480Z,31.20
2018-04-16T06:05:50.717Z,39.13
2018-04-16T06:08:17.666Z,33.10
2018-04-16T06:10:44.614Z,30.23
2018-04-16T06:13:10.831Z,40.27
2018-04-16T06:15:37.115Z,34.73
2018-04-16T06:18:03.331Z,39.90
2018-04-16T06:20:29.576Z,44.80
2018-04-16T06:22:55.746Z,39.63
2018-04-16T06:25:21.966Z,40.73
2018-04-16T06:27:48.869Z,43.43
2018-04-16T06:30:15.092Z,51.57
2018-04-16T06:32:41.323Z,82.63
2018-04-16T06:35:08.343Z,66.87
2018-04-16T06:37:34.536Z,44.00
2018-04-16T06:40:00.760Z,35.70
2018-04-16T06:42:26.920Z,36.27
2018-04-16T06:44:53.146Z,32.00
2018-04-16T06:47:19.546Z,34.50
2018-04-16T06:49:47.647Z,30.80
2018-04-16T06:52:16.615Z,32.50
2018-04-16T06:54:42.845Z,31.37
2018-04-16T06:57:09.051Z,26.97
2018-04-16T06:59:36.013Z,30.17
2018-04-16T07:02:02.263Z,33.17
2018-04-16T07:04:28.446Z,30.27
2018-04-16T07:06:54.628Z,30.67
2018-04-16T07:09:21.577Z,30.67
2018-04-16T07:11:48.539Z,35.83
2018-04-16T07:14:15.494Z,33.67
2018-04-16T07:16:42.512Z,34.33
2018-04-16T07:19:09.094Z,37.13
2018-04-16T07:21:35.470Z,34.70
2018-04-16T07:24:01.650Z,37.27
2018-04-16T07:26:27.870Z,34.30
2018-04-16T07:28:54.134Z,39.13
2018-04-16T07:31:20.341Z,37.03
2018-04-16T07:33:46.564Z,42.00
2018-04-16T07:36:12.758Z,38.20
2018-04-16T07:38:39.012Z,36.83
2018-04-16T07:41:05.239Z,37.20
2018-04-16T07:43:32.323Z,30.87
2018-04-16T07:45:58.574Z,34.63
2018-04-16T07:48:26.075Z,22.90
2018-04-16T07:50:52.311Z,23.03
2018-04-16T07:53:18.592Z,23.70
2018-04-16T07:55:45.619Z,20.60
2018-04-16T07:58:11.976Z,20.60
2018-04-16T08:00:38.399Z,17.80
2018-04-16T08:03:04.609Z,19.00
2018-04-16T08:05:32.192Z,20.10
2018-04-16T08:07:58.414Z,20.63
2018-04-16T08:10:24.607Z,19.73
2018-04-16T08:12:50.845Z,21.10
2018-04-16T08:15:17.037Z,21.93
2018-04-16T08:17:43.492Z,21.93
2018-04-16T08:20:10.488Z,21.80
2018-04-16T08:22:37.620Z,21.60
2018-04-16T08:25:04.869Z,22.03
2018-04-16T08:27:31.675Z,23.20
2018-04-16T08:29:57.901Z,21.90
2018-04-16T08:32:24.113Z,23.03
2018-04-16T08:34:51.042Z,24.17
2018-04-16T08:37:19.143Z,23.53
2018-04-16T08:39:45.378Z,25.70
2018-04-16T08:42:11.732Z,25.87
2018-04-16T08:44:38.761Z,24.30
2018-04-16T08:47:05.184Z,28.97
2018-04-16T08:49:31.491Z,24.80
2018-04-16T08:51:58.548Z,31.00
2018-04-16T08:54:24.916Z,29.73
2018-04-16T08:56:51.195Z,31.53
2018-04-16T08:59:17.455Z,30.03
2018-04-16T09:01:44.445Z,30.97
2018-04-16T09:04:11.560Z,31.27
2018-04-16T09:06:37.882Z,32.00
2018-04-16T09:09:05.059Z,29.70
2018-04-16T09:11:31.371Z,31.37
2018-04-16T09:13:57.657Z,29.60
2018-04-16T09:16:23.994Z,28.90
2018-04-16T09:18:50.321Z,30.07
2018-04-16T09:21:16.595Z,26.27
2018-04-16T09:23:42.887Z,26.87
2018-04-16T09:26:09.242Z,27.13
2018-04-16T09:28:35.604Z,26.77
2018-04-16T09:31:01.934Z,25.77
2018-04-16T09:33:28.599Z,31.17
2018-04-16T09:35:54.904Z,28.50
2018-04-16T09:38:21.248Z,25.67
2018-04-16T09:40:47.543Z,26.57
2018-04-16T09:43:13.859Z,24.90
2018-04-16T09:45:40.287Z,26.43
2018-04-16T09:48:06.659Z,26.60
2018-04-16T09:50:32.936Z,22.20
2018-04-16T09:52:59.299Z,23.07
2018-04-16T09:55:26.381Z,21.73
2018-04-16T09:57:52.699Z,21.33
2018-04-16T10:00:25.125Z,24.97
2018-04-16T10:02:57.382Z,21.13
2018-04-16T10:05:23.748Z,21.90
2018-04-16T10:07:50.068Z,21.43
2018-04-16T10:10:16.390Z,20.73
2018-04-16T10:12:43.521Z,21.63
2018-04-16T10:15:09.975Z,20.30
2018-04-16T10:17:36.409Z,19.80
2018-04-16T10:20:03.561Z,21.80
2018-04-16T10:22:29.906Z,21.43
2018-04-16T10:24:56.261Z,21.33
2018-04-16T10:27:22.622Z,24.20
2018-04-16T10:29:49.674Z,23.90
2018-04-16T10:32:16.066Z,24.73
2018-04-16T10:34:44.490Z,26.87
2018-04-16T10:37:11.602Z,23.70
2018-04-16T10:39:38.006Z,22.60
2018-04-16T10:42:04.455Z,26.13
2018-04-16T10:44:32.777Z,24.57
2018-04-16T10:46:59.946Z,24.83
2018-04-16T10:51:58.827Z,25.60
2018-04-16T10:54:26.020Z,26.77
2018-04-16T10:56:52.290Z,23.80
2018-04-16T10:59:18.584Z,25.13
2018-04-16T11:01:44.842Z,26.13
2018-04-16T11:04:11.472Z,24.77
2018-04-16T11:06:38.606Z,25.53
2018-04-16T11:09:05.803Z,26.47
2018-04-16T11:11:32.861Z,25.63
2018-04-16T11:13:59.900Z,23.93
2018-04-16T11:16:26.205Z,22.53
2018-04-16T11:18:53.239Z,23.17
2018-04-16T11:21:19.535Z,23.53
2018-04-16T11:23:45.880Z,23.30
2018-04-16T11:26:12.216Z,21.20
2018-04-16T11:28:38.710Z,22.70
2018-04-16T11:31:05.460Z,23.03
2018-04-16T11:33:32.503Z,22.60
2018-04-16T11:35:59.039Z,23.50
2018-04-16T11:38:25.630Z,24.53
2018-04-16T11:40:52.190Z,22.57
2018-04-16T11:43:19.317Z,23.63
2018-04-16T11:45:45.731Z,23.00
2018-04-16T11:48:12.160Z,24.20
2018-04-16T11:50:38.913Z,24.50
2018-04-16T11:53:06.959Z,27.80
2018-04-16T11:55:33.643Z,24.63
2018-04-16T11:58:00.263Z,22.77
2018-04-16T12:00:26.927Z,26.47
2018-04-16T12:02:53.292Z,25.90
2018-04-16T12:05:20.435Z,20.67
2018-04-16T12:07:46.998Z,21.77
2018-04-16T12:10:13.503Z,26.97
2018-04-16T12:12:40.321Z,21.67
2018-04-16T12:15:07.361Z,21.63
2018-04-16T12:17:33.784Z,24.17
2018-04-16T12:20:01.577Z,18.67
2018-04-16T12:22:28.763Z,29.00
2018-04-16T12:24:57.347Z,23.30
2018-04-16T12:27:24.665Z,24.00
2018-04-16T12:29:51.791Z,23.07
2018-04-16T12:32:18.089Z,24.03
2018-04-16T12:34:44.697Z,24.67
2018-04-16T12:37:12.376Z,25.50
2018-04-16T12:39:38.957Z,26.17
2018-04-16T12:42:06.722Z,24.93
2018-04-16T12:44:36.143Z,26.40
2018-04-16T12:47:12.118Z,22.77
2018-04-16T12:49:39.028Z,23.30
2018-04-16T12:52:05.972Z,21.63
2018-04-16T12:54:32.716Z,21.97
2018-04-16T12:57:08.008Z,20.57
2018-04-16T12:59:35.102Z,19.73
2018-04-16T13:02:01.733Z,22.73
2018-04-16T13:04:32.184Z,14.87
2018-04-16T13:07:06.705Z,13.50
2018-04-16T13:09:33.830Z,12.57
2018-04-16T13:12:00.878Z,14.47
2018-04-16T13:14:27.493Z,16.13
2018-04-16T13:16:54.009Z,14.13
2018-04-16T13:19:21.851Z,16.13
2018-04-16T13:21:49.493Z,16.77
2018-04-16T13:24:16.322Z,14.00
2018-04-16T13:26:42.924Z,13.60
2018-04-16T13:29:10.781Z,13.90
2018-04-16T13:31:38.065Z,15.40
2018-04-16T13:34:06.780Z,14.63
2018-04-16T13:36:36.015Z,19.47
2018-04-16T13:39:08.000Z,14.83
2018-04-16T13:41:34.279Z,14.90
2018-04-16T13:44:12.544Z,15.77
2018-04-16T13:46:41.071Z,18.60
2018-04-16T13:49:07.481Z,16.37
2018-04-16T13:51:33.730Z,16.73
2018-04-16T13:54:00.044Z,16.90
2018-04-16T13:56:27.652Z,14.67
2018-04-16T13:59:04.191Z,17.47
2018-04-16T14:01:30.631Z,14.77
2018-04-16T14:03:57.796Z,12.57
2018-04-16T14:06:27.342Z,11.57
2018-04-16T14:08:57.023Z,13.40
2018-04-16T14:11:24.616Z,11.07
2018-04-16T14:13:51.659Z,10.63
2018-04-16T14:16:18.136Z,10.67
2018-04-16T14:18:44.928Z,10.43
2018-04-16T14:21:11.775Z,10.63
2018-04-16T14:23:38.742Z,9.37
2018-04-16T14:26:08.547Z,10.27
2018-04-16T14:28:38.414Z,9.93
2018-04-16T14:31:04.799Z,10.07
2018-04-16T14:33:31.447Z,13.73
2018-04-16T14:36:03.928Z,11.57
2018-04-16T14:38:32.660Z,12.50
2018-04-16T14:40:59.752Z,12.00
2018-04-16T14:43:27.134Z,14.17
2018-04-16T14:45:53.504Z,11.57
2018-04-16T14:48:19.822Z,14.07
2018-04-16T14:50:46.401Z,14.97
2018-04-16T14:53:14.044Z,13.97
2018-04-16T14:55:40.434Z,11.90
2018-04-16T14:58:06.945Z,16.10
2018-04-16T15:00:33.206Z,16.33
2018-04-16T15:02:59.538Z,14.33
2018-04-16T15:05:31.328Z,15.73
2018-04-16T15:07:57.683Z,14.80
2018-04-16T15:10:25.015Z,14.70
2018-04-16T15:12:51.263Z,15.33
2018-04-16T15:15:17.533Z,13.03
2018-04-16T15:17:43.858Z,15.57
2018-04-16T15:20:10.259Z,16.50
2018-04-16T15:22:37.325Z,15.83
2018-04-16T15:25:03.663Z,14.53
2018-04-16T15:27:30.732Z,14.53
2018-04-16T15:29:57.114Z,15.23
2018-04-16T15:32:23.414Z,15.83
2018-04-16T15:34:50.490Z,16.70
2018-04-16T15:37:16.859Z,15.80
2018-04-16T15:39:43.231Z,16.63
2018-04-16T15:42:09.515Z,16.27
2018-04-16T15:44:35.840Z,17.37
2018-04-16T15:47:02.875Z,16.80
2018-04-16T15:49:29.183Z,17.47
2018-04-16T15:51:55.436Z,17.97
2018-04-16T15:54:21.802Z,15.33
2018-04-16T15:56:48.076Z,14.90
2018-04-16T15:59:14.354Z,14.07
2018-04-16T16:01:40.668Z,15.67
2018-04-16T16:04:07.072Z,16.60
2018-04-16T16:06:33.392Z,13.87
2018-04-16T16:08:59.688Z,15.83
2018-04-16T16:11:26.745Z,17.43
2018-04-16T16:13:54.772Z,15.13
2018-04-16T16:16:21.374Z,19.37
2018-04-16T16:18:48.379Z,18.80
2018-04-16T16:21:14.796Z,17.53
2018-04-16T16:23:42.092Z,20.20
2018-04-16T16:26:08.637Z,16.13
2018-04-16T16:28:34.945Z,17.93
2018-04-16T16:31:03.358Z,14.93
2018-04-16T16:33:29.946Z,17.43
2018-04-16T16:35:56.911Z,16.83
2018-04-16T16:38:23.268Z,14.57
2018-04-16T16:40:49.659Z,20.20
2018-04-16T16:43:16.675Z,16.87
2018-04-16T16:45:43.707Z,17.37
2018-04-16T16:48:10.058Z,20.73
2018-04-16T16:50:36.581Z,18.20
2018-04-16T16:53:04.839Z,19.00
2018-04-16T16:55:31.861Z,21.07
2018-04-16T16:58:04.350Z,39.93
2018-04-16T17:00:30.682Z,23.10
2018-04-16T17:02:57.893Z,21.43
2018-04-16T17:05:24.945Z,22.20
2018-04-16T17:07:52.116Z,18.77
2018-04-16T17:10:19.192Z,23.20
2018-04-16T17:12:45.524Z,23.73
2018-04-16T17:15:12.595Z,24.20
2018-04-16T17:17:38.913Z,25.17
2018-04-16T17:20:06.043Z,26.87
2018-04-16T17:22:39.044Z,26.73
2018-04-16T17:25:05.492Z,21.47
2018-04-16T17:27:32.273Z,22.83
2018-04-16T17:29:58.588Z,24.43
2018-04-16T17:32:24.889Z,23.03
2018-04-16T17:34:51.944Z,27.40
2018-04-16T17:37:18.196Z,27.00
2018-04-16T17:39:44.895Z,26.80
2018-04-16T17:42:11.280Z,25.53
2018-04-16T17:44:38.401Z,24.03
2018-04-16T17:47:06.324Z,26.43
2018-04-16T17:49:32.729Z,24.37
2018-04-16T17:51:59.135Z,27.03
2018-04-16T17:54:25.811Z,26.10
2018-04-16T17:56:52.424Z,24.70
2018-04-16T17:59:19.374Z,25.87
2018-04-16T18:01:45.775Z,25.17
2018-04-16T18:04:12.328Z,25.17
2018-04-16T18:06:40.094Z,29.43
2018-04-16T18:09:07.367Z,30.27
2018-04-16T18:11:33.886Z,25.60
2018-04-16T18:14:06.692Z,29.63
2018-04-16T18:16:37.244Z,29.43
2018-04-16T18:19:03.832Z,27.80
2018-04-16T18:21:31.059Z,29.63
2018-04-16T18:23:57.480Z,28.83
2018-04-16T18:26:24.026Z,32.10
2018-04-16T18:28:50.652Z,32.10
2018-04-16T18:31:17.138Z,29.83
2018-04-16T18:33:43.496Z,29.27
2018-04-16T18:36:09.944Z,27.77
2018-04-16T18:38:37.397Z,43.30
2018-04-16T18:41:03.880Z,34.93
2018-04-16T18:43:31.154Z,35.37
2018-04-16T18:45:58.360Z,32.87
2018-04-16T18:48:24.783Z,35.40
2018-04-16T18:50:51.395Z,31.13
2018-04-16T18:53:17.904Z,30.03
2018-04-16T18:55:45.329Z,28.67
2018-04-16T18:58:12.530Z,29.77
2018-04-16T19:00:42.213Z,29.80
2018-04-16T19:03:08.755Z,25.13
2018-04-16T19:05:36.976Z,29.87
2018-04-16T19:08:04.161Z,36.43
2018-04-16T19:10:30.589Z,31.57
2018-04-16T19:12:57.069Z,31.10
2018-04-16T19:15:23.944Z,28.47
2018-04-16T19:17:56.227Z,31.87
2018-04-16T19:20:28.594Z,36.80
2018-04-16T19:22:56.113Z,37.37
2018-04-16T19:25:23.010Z,35.77
2018-04-16T19:27:55.638Z,36.60
2018-04-16T19:30:22.302Z,42.13
2018-04-16T19:32:55.493Z,33.97
2018-04-16T19:35:23.304Z,35.50
2018-04-16T19:37:49.875Z,35.77
2018-04-16T19:40:17.119Z,35.27
2018-04-16T19:42:45.645Z,38.60
2018-04-16T19:45:12.178Z,34.50
2018-04-16T19:47:38.858Z,40.23
2018-04-16T19:50:06.608Z,41.33
2018-04-16T19:52:37.770Z,37.47
2018-04-16T19:55:04.723Z,34.83
2018-04-16T19:57:37.948Z,33.03
2018-04-16T20:00:04.745Z,30.00
2018-04-16T20:02:39.970Z,34.63
2018-04-16T20:05:07.764Z,45.23
2018-04-16T20:07:35.336Z,32.73
2018-04-16T20:10:02.192Z,103.90
2018-04-16T20:12:28.544Z,37.53
2018-04-16T20:14:56.341Z,30.87
2018-04-16T20:17:22.835Z,101.13
2018-04-16T20:19:49.656Z,48.33
2018-04-16T20:22:16.080Z,31.50
2018-04-16T20:24:45.083Z,48.93
2018-04-16T20:27:11.846Z,86.00
2018-04-16T20:29:38.820Z,258.80
2018-04-16T20:32:07.023Z,62.17
2018-04-16T20:34:34.313Z,33.53
2018-04-16T20:37:00.766Z,28.30
2018-04-16T20:39:27.167Z,29.50
2018-04-16T20:41:53.652Z,30.90
2018-04-16T20:44:20.586Z,31.13
2018-04-16T20:49:47.265Z,32.90
2018-04-16T20:52:21.354Z,131.23
2018-04-16T20:54:49.217Z,151.97
2018-04-16T20:57:16.628Z,35.87
2018-04-16T20:59:44.325Z,117.30
2018-04-16T21:02:11.413Z,90.53
2018-04-16T21:04:40.089Z,65.07
2018-04-16T21:07:09.257Z,74.13
2018-04-16T21:09:38.763Z,40.13
2018-04-16T21:12:08.751Z,29.17
2018-04-16T21:14:36.656Z,47.90
2018-04-16T21:17:03.132Z,40.33
2018-04-16T21:19:29.754Z,61.20
2018-04-16T21:21:56.329Z,47.43
2018-04-16T21:24:31.218Z,36.67
2018-04-16T21:26:58.058Z,45.30
2018-04-16T21:29:26.160Z,35.23
2018-04-16T21:31:52.686Z,31.50
2018-04-16T21:34:20.559Z,33.37
2018-04-16T21:36:47.148Z,30.90
2018-04-16T21:39:13.736Z,28.53
2018-04-16T21:41:41.937Z,32.37
2018-04-16T21:44:08.325Z,31.83
2018-04-16T21:46:34.643Z,32.63
2018-04-16T21:49:00.995Z,45.87
2018-04-16T21:51:27.269Z,27.53
2018-04-16T21:53:53.567Z,29.37
2018-04-16T21:56:19.861Z,70.43
2018-04-16T21:58:46.189Z,28.93
2018-04-16T22:01:12.569Z,48.67
2018-04-16T22:03:38.880Z,29.97
2018-04-16T22:06:05.303Z,50.13
2018-04-16T22:08:31.539Z,78.27
2018-04-16T22:10:57.804Z,38.43
2018-04-16T22:13:24.850Z,55.70
2018-04-16T22:15:52.343Z,54.60
2018-04-16T22:18:18.691Z,39.30
2018-04-16T22:20:44.944Z,23.70
2018-04-16T22:23:11.359Z,26.10
2018-04-16T22:25:37.933Z,22.53
2018-04-16T22:28:04.387Z,23.10
2018-04-16T22:30:30.717Z,23.60
2018-04-16T22:32:57.016Z,21.60
2018-04-16T22:35:24.066Z,22.47
2018-04-16T22:37:51.172Z,26.63
2018-04-16T22:40:17.560Z,24.87
2018-04-16T22:42:43.902Z,47.27
2018-04-16T22:45:10.310Z,22.17
2018-04-16T22:47:37.454Z,22.27
2018-04-16T22:50:03.761Z,23.60
2018-04-16T22:52:30.050Z,26.10
2018-04-16T22:54:56.332Z,25.40
2018-04-16T22:57:22.629Z,24.27
2018-04-16T22:59:48.976Z,62.57
2018-04-16T23:02:15.721Z,28.23
2018-04-16T23:04:43.509Z,20.57
2018-04-16T23:07:36.332Z,22.97
2018-04-16T23:10:03.700Z,24.30
2018-04-16T23:12:31.071Z,23.97
2018-04-16T23:15:00.574Z,24.77
2018-04-16T23:17:26.824Z,28.70
2018-04-16T23:19:53.153Z,26.47
2018-04-16T23:22:19.511Z,26.37
2018-04-16T23:24:45.803Z,28.10
2018-04-16T23:27:12.155Z,25.13
2018-04-16T23:29:38.423Z,23.13
2018-04-16T23:32:04.749Z,23.83
2018-04-16T23:34:31.282Z,24.30
2018-04-16T23:36:57.622Z,25.73
2018-04-16T23:39:23.879Z,25.30
2018-04-16T23:41:50.108Z,25.13
2018-04-16T23:44:16.447Z,26.80
2018-04-16T23:46:42.740Z,23.17
2018-04-16T23:49:09.194Z,21.07
2018-04-16T23:51:36.313Z,24.73
2018-04-16T23:54:02.660Z,25.40
2018-04-16T23:56:28.950Z,30.90
2018-04-16T23:58:55.981Z,24.37
